Time;durP1;ratioP1;P1;durP2;ratioP2;P2;SDS_P1;SDS_P2;PMS_P1;PMS_P2;Temp;Humidity;BMP_temperature;BMP_pressure;BME280_temperature;BME280_humidity;BME280_pressure;Samples;Min_cycle;Max_cycle;Signal;HPM_P1;HPM_P2
2022/07/03 00:01:40;;;;;;;5.88;4.93;;;;;;;;;;4996360;28;20271;-70
2022/07/03 00:04:05;;;;;;;4.93;4.53;;;;;;;;;;4992225;28;20030;-70
2022/07/03 00:06:31;;;;;;;5.47;4.97;;;;;;;;;;4988371;28;20790;-70
2022/07/03 00:08:57;;;;;;;5.03;4.65;;;;;;;;;;4997175;28;20053;-70
2022/07/03 00:11:23;;;;;;;5.18;4.68;;;;;;;;;;4990211;28;20030;-70
2022/07/03 00:13:48;;;;;;;8.15;4.57;;;;;;;;;;4997533;28;20027;-70
2022/07/03 00:16:13;;;;;;;4.70;4.30;;;;;;;;;;4991028;28;20415;-70
2022/07/03 00:18:38;;;;;;;5.05;4.60;;;;;;;;;;4985530;28;20361;-70
2022/07/03 00:21:07;;;;;;;4.50;4.20;;;;;;;;;;4993959;28;20037;-70
2022/07/03 00:23:47;;;;;;;4.70;4.30;;;;;;;;;;4990708;28;20428;-70
2022/07/03 00:26:15;;;;;;;4.85;4.45;;;;;;;;;;4987718;28;20053;-70
2022/07/03 00:28:41;;;;;;;4.90;4.50;;;;;;;;;;4993848;28;20357;-70
2022/07/03 00:31:07;;;;;;;6.57;4.30;;;;;;;;;;4989305;28;20041;-70
2022/07/03 00:33:33;;;;;;;5.88;5.18;;;;;;;;;;5000871;28;20026;-70
2022/07/03 00:35:59;;;;;;;6.68;4.80;;;;;;;;;;4987834;28;20026;-70
2022/07/03 00:38:24;;;;;;;5.97;5.25;;;;;;;;;;4992410;28;20171;-70
2022/07/03 00:40:49;;;;;;;5.60;5.20;;;;;;;;;;4991708;28;20072;-70
2022/07/03 00:43:16;;;;;;;7.18;5.32;;;;;;;;;;4986278;28;20161;-69
2022/07/03 00:45:45;;;;;;;5.63;5.13;;;;;;;;;;4986307;28;20036;-69
2022/07/03 00:48:10;;;;;;;5.45;4.75;;;;;;;;;;4993897;28;20033;-70
2022/07/03 00:50:36;;;;;;;5.95;5.30;;;;;;;;;;4998107;28;20045;-69
2022/07/03 00:53:02;;;;;;;6.88;4.90;;;;;;;;;;5000442;28;20365;-69
2022/07/03 00:55:27;;;;;;;5.63;4.90;;;;;;;;;;4988750;28;20034;-69
2022/07/03 00:57:54;;;;;;;10.00;5.22;;;;;;;;;;4992580;28;20141;-70
2022/07/03 01:00:19;;;;;;;5.78;5.28;;;;;;;;;;5008828;28;20456;-70
2022/07/03 01:02:55;;;;;;;5.25;4.85;;;;;;;;;;4998556;28;20025;-70
2022/07/03 01:05:37;;;;;;;6.05;4.88;;;;;;;;;;4991596;28;20026;-70
2022/07/03 01:08:02;;;;;;;4.93;4.60;;;;;;;;;;4998131;28;20018;-70
2022/07/03 01:10:30;;;;;;;8.63;4.70;;;;;;;;;;4993294;28;20077;-70
2022/07/03 01:13:02;;;;;;;8.23;7.15;;;;;;;;;;4992028;28;20117;-68
2022/07/03 01:15:28;;;;;;;8.70;7.30;;;;;;;;;;4990526;28;20022;-68
2022/07/03 01:18:00;;;;;;;10.85;7.40;;;;;;;;;;4993551;28;20037;-69
2022/07/03 01:20:28;;;;;;;11.35;9.35;;;;;;;;;;4994452;28;20033;-69
2022/07/03 01:22:54;;;;;;;12.38;10.65;;;;;;;;;;4983940;28;20104;-68
2022/07/03 01:25:27;;;;;;;12.07;10.07;;;;;;;;;;4983527;28;20106;-69
2022/07/03 01:28:04;;;;;;;11.10;9.80;;;;;;;;;;5001045;28;20036;-69
2022/07/03 01:30:31;;;;;;;11.00;9.77;;;;;;;;;;4994719;28;20026;-69
2022/07/03 01:32:58;;;;;;;10.98;9.82;;;;;;;;;;4988669;28;20033;-69
2022/07/03 01:35:27;;;;;;;8.98;8.07;;;;;;;;;;4998196;28;20038;-69
2022/07/03 01:37:53;;;;;;;8.48;7.70;;;;;;;;;;4983092;28;20053;-69
2022/07/03 01:40:21;;;;;;;9.52;8.63;;;;;;;;;;4997011;28;20108;-69
2022/07/03 01:42:48;;;;;;;9.88;8.43;;;;;;;;;;4996392;28;20022;-68
2022/07/03 01:45:14;;;;;;;14.05;10.27;;;;;;;;;;4992381;28;20030;-68
2022/07/03 01:47:41;;;;;;;12.70;9.55;;;;;;;;;;4985582;28;20076;-68
2022/07/03 01:50:07;;;;;;;9.90;8.90;;;;;;;;;;4997118;28;20105;-69
2022/07/03 01:52:32;;;;;;;10.50;8.55;;;;;;;;;;5000498;28;20030;-69
2022/07/03 01:54:59;;;;;;;10.38;7.68;;;;;;;;;;4985240;28;20033;-69
2022/07/03 01:57:32;;;;;;;7.75;7.15;;;;;;;;;;4985869;28;20034;-69
2022/07/03 01:59:59;;;;;;;8.85;8.05;;;;;;;;;;4981149;28;20030;-69
2022/07/03 02:02:28;;;;;;;9.48;7.30;;;;;;;;;;4983690;28;20027;-69
2022/07/03 02:04:58;;;;;;;15.35;7.85;;;;;;;;;;5006605;28;20022;-69
2022/07/03 02:07:33;;;;;;;8.65;7.85;;;;;;;;;;4987415;28;20062;-69
2022/07/03 02:10:02;;;;;;;8.82;7.90;;;;;;;;;;4983832;28;20030;-69
2022/07/03 02:12:32;;;;;;;9.07;8.07;;;;;;;;;;4991435;28;20027;-70
2022/07/03 02:15:05;;;;;;;9.15;8.25;;;;;;;;;;4978296;28;20053;-69
2022/07/03 02:17:36;;;;;;;8.25;7.32;;;;;;;;;;4981765;28;20470;-69
2022/07/03 02:20:07;;;;;;;8.60;7.80;;;;;;;;;;4982991;28;20038;-70
2022/07/03 02:22:34;;;;;;;10.27;8.38;;;;;;;;;;4978912;28;20011;-69
2022/07/03 02:25:13;;;;;;;9.05;8.25;;;;;;;;;;4980245;28;20018;-70
2022/07/03 02:27:43;;;;;;;9.65;8.25;;;;;;;;;;4979870;28;20026;-69
2022/07/03 02:30:10;;;;;;;8.90;8.10;;;;;;;;;;4980062;28;20037;-69
2022/07/03 02:32:41;;;;;;;10.35;8.82;;;;;;;;;;4982496;28;20022;-70
2022/07/03 02:35:07;;;;;;;9.45;8.52;;;;;;;;;;4982254;28;20424;-69
2022/07/03 02:37:38;;;;;;;9.60;8.23;;;;;;;;;;4982106;28;20030;-69
2022/07/03 02:40:06;;;;;;;9.15;8.23;;;;;;;;;;4989726;28;20452;-69
2022/07/03 02:42:49;;;;;;;9.13;8.23;;;;;;;;;;4983810;28;20018;-70
2022/07/03 02:45:16;;;;;;;8.32;7.53;;;;;;;;;;4975760;28;20022;-69
2022/07/03 02:47:50;;;;;;;9.63;8.63;;;;;;;;;;4982188;28;20080;-70
2022/07/03 02:50:20;;;;;;;9.40;8.18;;;;;;;;;;4981321;28;20026;-70
2022/07/03 02:52:45;;;;;;;9.82;8.82;;;;;;;;;;4982542;28;20457;-69
2022/07/03 02:55:19;;;;;;;10.63;8.43;;;;;;;;;;4977640;28;20022;-69
2022/07/03 02:57:45;;;;;;;9.05;8.15;;;;;;;;;;4980866;28;20034;-69
2022/07/03 03:00:11;;;;;;;8.45;7.65;;;;;;;;;;4976466;28;20409;-69
2022/07/03 03:02:49;;;;;;;9.30;8.32;;;;;;;;;;4984234;28;20027;-71
2022/07/03 03:05:33;;;;;;;9.23;7.97;;;;;;;;;;4980056;28;20018;-70
2022/07/03 03:08:01;;;;;;;9.35;8.25;;;;;;;;;;4979564;28;20693;-70
2022/07/03 03:10:26;;;;;;;9.43;8.38;;;;;;;;;;4978886;28;20033;-70
2022/07/03 03:13:04;;;;;;;8.43;7.63;;;;;;;;;;4982877;28;20026;-70
2022/07/03 03:15:30;;;;;;;8.13;7.32;;;;;;;;;;4992811;28;20026;-70
2022/07/03 03:18:00;;;;;;;9.52;7.95;;;;;;;;;;4982145;28;20045;-70
2022/07/03 03:20:29;;;;;;;8.93;8.02;;;;;;;;;;4981204;28;20034;-70
2022/07/03 03:22:57;;;;;;;9.43;8.52;;;;;;;;;;4984691;28;20118;-70
2022/07/03 03:25:22;;;;;;;12.57;8.43;;;;;;;;;;4979537;28;20100;-70
2022/07/03 03:27:47;;;;;;;9.48;8.57;;;;;;;;;;4978886;28;20062;-69
2022/07/03 03:30:13;;;;;;;9.27;8.37;;;;;;;;;;4979357;28;20018;-69
2022/07/03 03:32:39;;;;;;;9.93;8.63;;;;;;;;;;4985521;28;20325;-70
2022/07/03 03:35:04;;;;;;;9.85;8.85;;;;;;;;;;4980605;28;20038;-71
2022/07/03 03:37:30;;;;;;;11.82;9.05;;;;;;;;;;4983189;28;20036;-70
2022/07/03 03:39:56;;;;;;;10.85;8.82;;;;;;;;;;4975914;28;20103;-69
2022/07/03 03:42:21;;;;;;;9.48;8.57;;;;;;;;;;4978728;28;20041;-70
2022/07/03 03:44:46;;;;;;;13.57;9.18;;;;;;;;;;4984275;28;20105;-71
2022/07/03 03:47:11;;;;;;;9.25;8.23;;;;;;;;;;4991438;28;20034;-70
2022/07/03 03:49:36;;;;;;;9.20;7.80;;;;;;;;;;4986612;28;20394;-70
2022/07/03 03:52:02;;;;;;;8.88;7.55;;;;;;;;;;4984387;28;20274;-70
2022/07/03 03:54:27;;;;;;;8.73;7.65;;;;;;;;;;4985313;28;20034;-70
2022/07/03 03:56:52;;;;;;;11.40;8.57;;;;;;;;;;4982490;28;20110;-70
2022/07/03 03:59:17;;;;;;;11.13;8.68;;;;;;;;;;4997811;28;20752;-70
2022/07/03 04:01:43;;;;;;;11.67;9.70;;;;;;;;;;4996272;28;20076;-70
2022/07/03 04:04:08;;;;;;;12.15;9.95;;;;;;;;;;4994890;28;20601;-70
2022/07/03 04:06:33;;;;;;;11.23;10.05;;;;;;;;;;4989041;28;20058;-70
2022/07/03 04:08:58;;;;;;;13.27;10.13;;;;;;;;;;4989985;28;20089;-69
2022/07/03 04:11:23;;;;;;;9.47;8.57;;;;;;;;;;4986445;28;20034;-70
2022/07/03 04:13:49;;;;;;;12.10;10.03;;;;;;;;;;4985364;28;20762;-69
2022/07/03 04:16:14;;;;;;;9.70;8.80;;;;;;;;;;4981884;28;20285;-69
2022/07/03 04:18:39;;;;;;;13.33;10.23;;;;;;;;;;4982614;28;20038;-69
2022/07/03 04:21:04;;;;;;;16.43;11.87;;;;;;;;;;4983136;28;20264;-69
2022/07/03 04:23:30;;;;;;;13.57;11.30;;;;;;;;;;4979970;28;20018;-69
2022/07/03 04:25:55;;;;;;;12.55;10.55;;;;;;;;;;4984683;28;20556;-69
2022/07/03 04:28:20;;;;;;;12.23;10.88;;;;;;;;;;4985006;28;20037;-69
2022/07/03 04:30:46;;;;;;;12.15;10.45;;;;;;;;;;4985828;28;20090;-70
2022/07/03 04:33:11;;;;;;;16.65;10.68;;;;;;;;;;4983033;28;23075;-70
2022/07/03 04:35:38;;;;;;;11.93;10.50;;;;;;;;;;4983798;28;20045;-70
2022/07/03 04:38:03;;;;;;;15.40;11.18;;;;;;;;;;4980944;28;20536;-69
2022/07/03 04:40:28;;;;;;;15.23;12.13;;;;;;;;;;4987793;28;20026;-70
2022/07/03 04:42:53;;;;;;;14.30;12.52;;;;;;;;;;4982093;28;20450;-69
2022/07/03 04:45:18;;;;;;;16.63;11.88;;;;;;;;;;4985859;28;20105;-70
2022/07/03 04:47:44;;;;;;;14.82;12.35;;;;;;;;;;4983356;28;21482;-70
2022/07/03 04:50:09;;;;;;;15.93;11.45;;;;;;;;;;4985586;28;20034;-69
2022/07/03 04:52:34;;;;;;;13.85;11.68;;;;;;;;;;4985696;28;20066;-70
2022/07/03 04:54:59;;;;;;;15.07;12.60;;;;;;;;;;4981709;28;20053;-69
2022/07/03 04:57:24;;;;;;;15.38;12.77;;;;;;;;;;4983292;28;20038;-69
2022/07/03 04:59:49;;;;;;;20.65;14.55;;;;;;;;;;4995511;28;20436;-68
2022/07/03 05:02:14;;;;;;;17.47;12.70;;;;;;;;;;4986120;28;20120;-69
2022/07/03 05:04:40;;;;;;;17.30;12.87;;;;;;;;;;4988243;28;20279;-68
2022/07/03 05:07:05;;;;;;;18.37;13.10;;;;;;;;;;4993672;28;20069;-68
2022/07/03 05:09:30;;;;;;;20.25;13.65;;;;;;;;;;4989524;28;20280;-69
2022/07/03 05:11:55;;;;;;;30.30;14.37;;;;;;;;;;4999829;28;20116;-68
2022/07/03 05:14:20;;;;;;;22.40;12.93;;;;;;;;;;4979245;28;20765;-69
2022/07/03 05:16:45;;;;;;;18.40;13.30;;;;;;;;;;4982807;28;20287;-69
2022/07/03 05:19:11;;;;;;;15.70;11.57;;;;;;;;;;4983178;28;20026;-69
2022/07/03 05:21:37;;;;;;;20.50;12.27;;;;;;;;;;4981290;28;20300;-69
2022/07/03 05:24:02;;;;;;;17.33;11.27;;;;;;;;;;4981435;28;20030;-69
2022/07/03 05:26:27;;;;;;;12.90;9.88;;;;;;;;;;4982448;28;20291;-69
2022/07/03 05:28:53;;;;;;;13.50;8.77;;;;;;;;;;4980690;28;20038;-70
2022/07/03 05:31:18;;;;;;;14.87;7.93;;;;;;;;;;4984700;28;20077;-70
2022/07/03 05:33:43;;;;;;;13.00;7.97;;;;;;;;;;4981538;28;20037;-69
2022/07/03 05:36:08;;;;;;;9.40;7.37;;;;;;;;;;4983932;28;20812;-70
2022/07/03 05:41:17;;;;;;;12.73;6.90;;;;;;;;;;4984732;28;20037;-69
2022/07/03 05:43:43;;;;;;;8.30;6.25;;;;;;;;;;4979667;28;20026;-69
2022/07/03 05:46:08;;;;;;;12.48;7.22;;;;;;;;;;4985434;28;20458;-69
2022/07/03 05:48:33;;;;;;;8.63;6.50;;;;;;;;;;4982809;28;20037;-69
2022/07/03 05:50:58;;;;;;;7.57;6.10;;;;;;;;;;4983898;28;20034;-69
2022/07/03 05:53:24;;;;;;;13.00;6.87;;;;;;;;;;4980008;28;20033;-68
2022/07/03 05:55:49;;;;;;;8.67;5.47;;;;;;;;;;4979101;28;20272;-68
2022/07/03 05:58:14;;;;;;;8.75;5.28;;;;;;;;;;4983308;28;20648;-69
2022/07/03 06:00:40;;;;;;;10.05;5.45;;;;;;;;;;5003177;28;20068;-69
2022/07/03 06:03:05;;;;;;;6.68;5.47;;;;;;;;;;4982140;28;20388;-69
2022/07/03 06:05:32;;;;;;;11.15;5.70;;;;;;;;;;4987244;28;20026;-69
2022/07/03 06:07:57;;;;;;;6.63;4.88;;;;;;;;;;4980331;28;20030;-69
2022/07/03 06:10:22;;;;;;;10.63;5.30;;;;;;;;;;4982809;28;20045;-69
2022/07/03 06:12:47;;;;;;;7.17;4.93;;;;;;;;;;4980363;28;20859;-68
2022/07/03 06:15:12;;;;;;;7.60;4.97;;;;;;;;;;4979512;28;20375;-69
2022/07/03 06:17:38;;;;;;;8.80;5.00;;;;;;;;;;4983047;28;20041;-69
2022/07/03 06:20:04;;;;;;;9.23;4.95;;;;;;;;;;4979674;28;20690;-67
2022/07/03 06:22:29;;;;;;;10.25;4.50;;;;;;;;;;4977906;28;20129;-67
2022/07/03 06:24:55;;;;;;;6.60;4.28;;;;;;;;;;4986881;28;20160;-68
2022/07/03 06:27:20;;;;;;;8.70;4.00;;;;;;;;;;4985804;28;20492;-67
2022/07/03 06:29:45;;;;;;;8.97;3.90;;;;;;;;;;4982908;28;20381;-68
2022/07/03 06:32:10;;;;;;;5.28;4.13;;;;;;;;;;4980575;28;20630;-68
2022/07/03 06:34:35;;;;;;;8.23;4.93;;;;;;;;;;4979202;28;20026;-68
2022/07/03 06:37:01;;;;;;;6.23;3.47;;;;;;;;;;4980137;28;20272;-68
2022/07/03 06:39:26;;;;;;;6.68;3.47;;;;;;;;;;4987072;28;20739;-68
2022/07/03 06:41:51;;;;;;;6.63;3.17;;;;;;;;;;4983964;28;20108;-68
2022/07/03 06:44:16;;;;;;;5.10;3.33;;;;;;;;;;4979802;28;20026;-68
2022/07/03 06:46:41;;;;;;;7.00;3.17;;;;;;;;;;4979785;28;20034;-68
2022/07/03 06:49:07;;;;;;;12.10;3.27;;;;;;;;;;4981529;28;20026;-70
2022/07/03 06:51:33;;;;;;;6.83;2.90;;;;;;;;;;4982222;28;20547;-69
2022/07/03 06:53:58;;;;;;;6.95;2.78;;;;;;;;;;4979222;28;20457;-70
2022/07/03 06:56:23;;;;;;;7.47;2.90;;;;;;;;;;4982570;28;20461;-69
2022/07/03 06:58:49;;;;;;;5.18;2.75;;;;;;;;;;4987051;28;20743;-71
2022/07/03 07:01:14;;;;;;;9.17;3.33;;;;;;;;;;4983920;28;20507;-68
2022/07/03 07:03:39;;;;;;;5.57;3.00;;;;;;;;;;4988516;28;20026;-69
2022/07/03 07:06:04;;;;;;;5.00;2.60;;;;;;;;;;4989654;28;20448;-67
2022/07/03 07:08:29;;;;;;;4.00;1.93;;;;;;;;;;5007056;28;20155;-68
2022/07/03 07:10:54;;;;;;;3.40;2.23;;;;;;;;;;4991787;28;20466;-68
2022/07/03 07:13:20;;;;;;;5.43;2.65;;;;;;;;;;4993639;28;20062;-69
2022/07/03 07:15:45;;;;;;;4.55;2.10;;;;;;;;;;4985936;28;20082;-68
2022/07/03 07:18:10;;;;;;;4.50;2.00;;;;;;;;;;4985088;28;20527;-68
2022/07/03 07:20:35;;;;;;;6.23;2.60;;;;;;;;;;4994246;28;20025;-69
2022/07/03 07:23:00;;;;;;;7.70;3.80;;;;;;;;;;4996905;28;20278;-69
2022/07/03 07:25:25;;;;;;;6.75;2.70;;;;;;;;;;4996792;28;20038;-68
2022/07/03 07:27:51;;;;;;;4.93;2.57;;;;;;;;;;4994026;28;20384;-68
2022/07/03 07:30:16;;;;;;;3.10;2.10;;;;;;;;;;4990534;28;20054;-69
2022/07/03 07:32:41;;;;;;;7.30;2.45;;;;;;;;;;4982947;28;20394;-68
2022/07/03 07:35:06;;;;;;;6.63;1.95;;;;;;;;;;4980675;28;20034;-68
2022/07/03 07:37:32;;;;;;;2.67;1.80;;;;;;;;;;4990144;28;20570;-69
2022/07/03 07:39:57;;;;;;;2.35;1.65;;;;;;;;;;4984712;28;20029;-68
2022/07/03 07:42:24;;;;;;;6.93;2.20;;;;;;;;;;4983914;28;20030;-70
2022/07/03 07:44:49;;;;;;;5.72;2.10;;;;;;;;;;4984253;28;20031;-70
2022/07/03 07:47:14;;;;;;;3.88;1.95;;;;;;;;;;4991229;28;20021;-68
2022/07/03 07:49:39;;;;;;;5.97;2.50;;;;;;;;;;4986031;28;20025;-66
2022/07/03 07:52:05;;;;;;;3.20;2.25;;;;;;;;;;4987908;28;20532;-68
2022/07/03 07:54:30;;;;;;;5.85;2.67;;;;;;;;;;4986269;28;20018;-69
2022/07/03 07:56:55;;;;;;;6.03;2.80;;;;;;;;;;4985210;28;20132;-73
2022/07/03 07:59:20;;;;;;;2.90;2.37;;;;;;;;;;4996638;28;20271;-69
2022/07/03 08:07:13;;;;;;;3.95;2.45;;;;;;;;;;4986306;28;20515;-72
2022/07/03 08:09:39;;;;;;;7.43;2.50;;;;;;;;;;4982498;28;20025;-68
2022/07/03 08:12:04;;;;;;;4.67;2.00;;;;;;;;;;4981689;28;20030;-69
2022/07/03 08:14:29;;;;;;;4.38;1.83;;;;;;;;;;4987921;28;20271;-69
2022/07/03 08:16:54;;;;;;;11.87;2.13;;;;;;;;;;4990864;28;20029;-71
2022/07/03 08:19:20;;;;;;;5.97;1.87;;;;;;;;;;5000469;28;20346;-73
2022/07/03 08:21:45;;;;;;;3.57;1.70;;;;;;;;;;4988914;28;20069;-72
2022/07/03 08:24:10;;;;;;;3.45;1.70;;;;;;;;;;4980762;28;20457;-70
2022/07/03 08:26:36;;;;;;;5.15;1.80;;;;;;;;;;4990496;28;20034;-73
2022/07/03 08:29:01;;;;;;;5.47;1.70;;;;;;;;;;4977477;28;20027;-72
2022/07/03 08:31:26;;;;;;;4.20;1.50;;;;;;;;;;4979264;28;20137;-71
2022/07/03 08:33:51;;;;;;;3.43;2.03;;;;;;;;;;4986293;28;20033;-70
2022/07/03 08:36:16;;;;;;;3.90;2.00;;;;;;;;;;4988624;28;20287;-68
2022/07/03 08:38:42;;;;;;;3.30;2.20;;;;;;;;;;4983310;28;20109;-70
2022/07/03 08:41:08;;;;;;;6.93;2.15;;;;;;;;;;4983607;28;20028;-72
2022/07/03 08:43:33;;;;;;;3.28;2.40;;;;;;;;;;4981900;28;20044;-70
2022/07/03 08:45:59;;;;;;;3.05;1.80;;;;;;;;;;4980943;28;20466;-70
2022/07/03 08:48:24;;;;;;;4.78;1.45;;;;;;;;;;4981019;28;20049;-73
2022/07/03 08:50:50;;;;;;;2.83;1.80;;;;;;;;;;4986189;28;20037;-71
2022/07/03 08:53:16;;;;;;;3.25;1.60;;;;;;;;;;4984504;28;20690;-71
2022/07/03 08:55:41;;;;;;;6.63;1.60;;;;;;;;;;4981552;28;20026;-70
2022/07/03 08:58:10;;;;;;;1.60;1.50;;;;;;;;;;4982069;28;20129;-69
2022/07/03 09:00:35;;;;;;;2.90;1.80;;;;;;;;;;4976969;28;20306;-71
2022/07/03 09:03:04;;;;;;;3.90;1.70;;;;;;;;;;4980777;28;20116;-71
2022/07/03 09:05:29;;;;;;;3.28;1.95;;;;;;;;;;4984101;28;20155;-72
2022/07/03 09:07:55;;;;;;;1.95;1.42;;;;;;;;;;4983616;28;20149;-72
2022/07/03 09:10:20;;;;;;;3.05;1.67;;;;;;;;;;4981665;28;20109;-71
2022/07/03 09:12:46;;;;;;;5.13;1.60;;;;;;;;;;4984722;28;20030;-71
2022/07/03 09:15:11;;;;;;;5.13;1.65;;;;;;;;;;4979300;28;20276;-71
2022/07/03 09:17:37;;;;;;;4.20;1.90;;;;;;;;;;4974739;28;20049;-71
2022/07/03 09:20:03;;;;;;;5.63;1.50;;;;;;;;;;4976394;28;20030;-70
2022/07/03 09:22:30;;;;;;;6.25;2.38;;;;;;;;;;4975940;28;20054;-71
2022/07/03 09:25:09;;;;;;;4.72;1.90;;;;;;;;;;4981812;28;20124;-70
2022/07/03 09:27:35;;;;;;;3.38;2.47;;;;;;;;;;4975885;28;20507;-72
2022/07/03 09:30:07;;;;;;;3.28;1.95;;;;;;;;;;4986568;28;20026;-71
2022/07/03 09:32:40;;;;;;;3.65;1.98;;;;;;;;;;4983142;28;20041;-72
2022/07/03 09:35:13;;;;;;;2.83;1.90;;;;;;;;;;4987762;28;20030;-72
2022/07/03 09:37:39;;;;;;;3.60;1.83;;;;;;;;;;4978726;28;20372;-70
2022/07/03 09:40:05;;;;;;;4.68;1.85;;;;;;;;;;4976817;28;20215;-71
2022/07/03 09:42:30;;;;;;;3.38;1.67;;;;;;;;;;4985357;28;20496;-72
2022/07/03 09:44:55;;;;;;;5.37;1.90;;;;;;;;;;4978684;28;20153;-71
2022/07/03 09:47:24;;;;;;;4.27;1.87;;;;;;;;;;4978000;28;20096;-67
2022/07/03 09:49:58;;;;;;;3.45;1.77;;;;;;;;;;4983192;28;20086;-67
2022/07/03 09:52:28;;;;;;;3.65;2.10;;;;;;;;;;4986634;28;20552;-71
2022/07/03 09:54:54;;;;;;;2.47;1.67;;;;;;;;;;4987982;28;20035;-71
2022/07/03 09:57:19;;;;;;;2.58;1.73;;;;;;;;;;4983380;28;20408;-69
2022/07/03 09:59:44;;;;;;;5.15;1.80;;;;;;;;;;4983950;28;22026;-71
2022/07/03 10:02:10;;;;;;;1.93;1.50;;;;;;;;;;4982574;28;20034;-68
2022/07/03 10:04:35;;;;;;;4.80;1.67;;;;;;;;;;4982833;28;20448;-69
2022/07/03 10:07:00;;;;;;;2.20;1.50;;;;;;;;;;4984302;28;20065;-69
2022/07/03 10:09:27;;;;;;;3.85;1.27;;;;;;;;;;4981836;28;20097;-70
2022/07/03 10:11:53;;;;;;;3.90;1.73;;;;;;;;;;4980340;28;20112;-70
2022/07/03 10:14:19;;;;;;;3.97;2.00;;;;;;;;;;4989328;28;20101;-71
2022/07/03 10:16:44;;;;;;;6.15;1.90;;;;;;;;;;4983807;28;20015;-71
2022/07/03 10:19:19;;;;;;;3.87;2.00;;;;;;;;;;4986470;28;20210;-71
2022/07/03 10:21:49;;;;;;;3.28;1.73;;;;;;;;;;4978082;28;20825;-67
2022/07/03 10:24:15;;;;;;;2.15;1.55;;;;;;;;;;4978377;28;20616;-69
2022/07/03 10:26:40;;;;;;;5.03;1.50;;;;;;;;;;4982385;28;20022;-69
2022/07/03 10:29:07;;;;;;;3.10;1.50;;;;;;;;;;4983124;28;20102;-69
2022/07/03 10:31:32;;;;;;;3.65;1.60;;;;;;;;;;4981493;28;20058;-69
2022/07/03 10:33:58;;;;;;;7.13;1.85;;;;;;;;;;4988858;28;20060;-68
2022/07/03 10:36:24;;;;;;;3.75;2.42;;;;;;;;;;4981550;28;20034;-69
2022/07/03 10:38:49;;;;;;;7.85;2.10;;;;;;;;;;4978628;28;20046;-67
2022/07/03 10:46:56;;;;;;;3.88;2.53;;;;;;;;;;4993063;28;20033;-69
2022/07/03 10:49:21;;;;;;;2.78;2.00;;;;;;;;;;5004379;28;20025;-70
2022/07/03 10:52:00;;;;;;;4.77;1.90;;;;;;;;;;4988081;28;21321;-69
2022/07/03 10:54:26;;;;;;;3.72;2.53;;;;;;;;;;5003204;28;20279;-69
2022/07/03 10:56:58;;;;;;;4.03;2.40;;;;;;;;;;4994049;28;20058;-68
2022/07/03 10:59:46;;;;;;;2.10;1.63;;;;;;;;;;4989820;28;20045;-69
2022/07/03 11:02:21;;;;;;;4.32;2.55;;;;;;;;;;4986867;28;20018;-67
2022/07/03 11:05:01;;;;;;;3.58;2.20;;;;;;;;;;4992144;28;20065;-69
2022/07/03 11:07:27;;;;;;;3.78;2.40;;;;;;;;;;4994459;28;20034;-68
2022/07/03 11:10:12;;;;;;;2.72;1.77;;;;;;;;;;5002365;28;20376;-68
2022/07/03 11:12:55;;;;;;;2.85;2.05;;;;;;;;;;4977561;28;20026;-69
2022/07/03 11:15:40;;;;;;;5.10;1.92;;;;;;;;;;4999783;28;20238;-67
2022/07/03 11:18:11;;;;;;;5.95;2.72;;;;;;;;;;4998658;28;20030;-67
2022/07/03 11:20:39;;;;;;;5.97;2.22;;;;;;;;;;4995974;28;20018;-69
2022/07/03 11:23:04;;;;;;;2.63;2.38;;;;;;;;;;4993631;28;20077;-70
2022/07/03 11:25:39;;;;;;;5.32;2.72;;;;;;;;;;5005389;28;20034;-68
2022/07/03 11:28:04;;;;;;;4.93;2.20;;;;;;;;;;4995970;28;20038;-66
2022/07/03 11:30:31;;;;;;;2.03;1.83;;;;;;;;;;4988527;28;20044;-70
2022/07/03 11:33:00;;;;;;;4.10;2.33;;;;;;;;;;4993042;28;20033;-69
2022/07/03 11:35:48;;;;;;;4.85;1.67;;;;;;;;;;5006285;28;20534;-71
2022/07/03 11:38:17;;;;;;;2.80;1.75;;;;;;;;;;4988845;28;20033;-68
2022/07/03 11:40:44;;;;;;;2.75;2.03;;;;;;;;;;4993680;28;20019;-69
2022/07/03 11:43:10;;;;;;;2.83;1.90;;;;;;;;;;4999695;28;20541;-68
2022/07/03 11:45:37;;;;;;;2.67;1.90;;;;;;;;;;4994447;28;20022;-69
2022/07/03 11:48:05;;;;;;;1.45;1.30;;;;;;;;;;4990595;28;20026;-71
2022/07/03 11:50:40;;;;;;;1.85;1.67;;;;;;;;;;5000517;28;20539;-67
2022/07/03 11:53:14;;;;;;;4.60;1.88;;;;;;;;;;4995427;28;20029;-68
2022/07/03 11:55:46;;;;;;;2.35;1.48;;;;;;;;;;4988870;28;20030;-65
2022/07/03 11:58:11;;;;;;;2.50;1.75;;;;;;;;;;4985222;28;20676;-69
2022/07/03 12:00:37;;;;;;;4.03;1.50;;;;;;;;;;4978568;28;20168;-69
2022/07/03 12:03:03;;;;;;;2.42;1.73;;;;;;;;;;4984921;28;20026;-68
2022/07/03 12:05:28;;;;;;;5.72;1.95;;;;;;;;;;4997265;28;20369;-69
2022/07/03 12:08:03;;;;;;;3.57;2.00;;;;;;;;;;4983183;28;20469;-69
2022/07/03 12:10:39;;;;;;;5.18;1.70;;;;;;;;;;4985361;28;20492;-69
2022/07/03 12:13:04;;;;;;;5.45;1.95;;;;;;;;;;4980159;28;20026;-66
2022/07/03 12:15:29;;;;;;;3.28;1.80;;;;;;;;;;4979355;28;20401;-72
2022/07/03 12:17:54;;;;;;;2.50;1.80;;;;;;;;;;4985393;28;20040;-68
2022/07/03 12:20:19;;;;;;;6.95;2.00;;;;;;;;;;4987763;28;20070;-69
2022/07/03 12:22:45;;;;;;;3.33;2.13;;;;;;;;;;4987340;28;20055;-68
2022/07/03 12:25:10;;;;;;;4.50;1.90;;;;;;;;;;4974942;28;20026;-68
2022/07/03 12:27:40;;;;;;;3.22;2.13;;;;;;;;;;4987465;28;20627;-66
2022/07/03 12:30:07;;;;;;;3.10;1.90;;;;;;;;;;4985950;28;20124;-67
2022/07/03 12:32:33;;;;;;;1.98;1.85;;;;;;;;;;4987120;28;20050;-67
2022/07/03 12:34:58;;;;;;;4.22;2.00;;;;;;;;;;4998189;28;20104;-69
2022/07/03 12:37:44;;;;;;;3.53;1.80;;;;;;;;;;4990450;28;20030;-68
2022/07/03 12:40:10;;;;;;;3.50;2.53;;;;;;;;;;4978379;28;20746;-66
2022/07/03 12:42:43;;;;;;;3.10;2.10;;;;;;;;;;4995626;28;20017;-65
2022/07/03 12:45:11;;;;;;;3.17;2.20;;;;;;;;;;4986457;28;20021;-68
2022/07/03 12:47:36;;;;;;;3.00;2.00;;;;;;;;;;4986137;28;20038;-66
2022/07/03 12:50:03;;;;;;;2.33;2.20;;;;;;;;;;4985289;28;20101;-67
2022/07/03 12:52:28;;;;;;;1.95;1.85;;;;;;;;;;4982238;28;20073;-72
2022/07/03 12:54:54;;;;;;;3.75;1.70;;;;;;;;;;4987315;28;20053;-68
2022/07/03 13:00:06;;;;;;;8.73;2.58;;;;;;;;;;4987150;28;20033;-67
2022/07/03 13:02:35;;;;;;;4.60;1.83;;;;;;;;;;4989045;28;20085;-70
2022/07/03 13:05:00;;;;;;;2.30;1.70;;;;;;;;;;4981802;28;20028;-68
2022/07/03 13:07:30;;;;;;;3.25;1.63;;;;;;;;;;4981402;28;20022;-68
2022/07/03 13:09:55;;;;;;;2.70;1.45;;;;;;;;;;4980341;28;20037;-70
2022/07/03 13:12:22;;;;;;;2.80;1.60;;;;;;;;;;4983043;28;20022;-70
2022/07/03 13:14:59;;;;;;;5.05;1.83;;;;;;;;;;4991283;28;20045;-70
2022/07/03 13:17:43;;;;;;;3.20;1.42;;;;;;;;;;4980750;28;20026;-70
2022/07/03 13:20:08;;;;;;;3.03;1.50;;;;;;;;;;4983583;28;20022;-72
2022/07/03 13:22:33;;;;;;;5.03;1.63;;;;;;;;;;4990158;28;20495;-68
2022/07/03 13:24:59;;;;;;;4.05;2.20;;;;;;;;;;4983028;28;20264;-72
2022/07/03 13:27:24;;;;;;;6.10;2.63;;;;;;;;;;4985565;28;20329;-72
2022/07/03 13:29:49;;;;;;;4.97;3.00;;;;;;;;;;4995606;28;20472;-70
2022/07/03 13:32:14;;;;;;;5.50;2.40;;;;;;;;;;4985144;28;20037;-69
2022/07/03 13:34:39;;;;;;;4.57;2.83;;;;;;;;;;4981837;28;20027;-71
2022/07/03 13:37:04;;;;;;;2.83;2.50;;;;;;;;;;4986013;28;20038;-71
2022/07/03 13:39:29;;;;;;;4.37;2.70;;;;;;;;;;4980788;28;20480;-71
2022/07/03 13:41:55;;;;;;;2.55;2.35;;;;;;;;;;4988549;28;20022;-72
2022/07/03 13:44:20;;;;;;;5.28;2.33;;;;;;;;;;4989863;28;20014;-72
2022/07/03 13:46:45;;;;;;;4.60;2.30;;;;;;;;;;4983220;28;20023;-72
2022/07/03 13:49:10;;;;;;;1.77;1.60;;;;;;;;;;4987238;28;20390;-69
2022/07/03 13:51:35;;;;;;;2.43;1.60;;;;;;;;;;4985346;28;20029;-71
2022/07/03 13:54:01;;;;;;;2.17;1.80;;;;;;;;;;4979773;28;20482;-71
2022/07/03 13:56:26;;;;;;;2.30;1.70;;;;;;;;;;4979609;28;20034;-72
2022/07/03 13:58:51;;;;;;;1.97;1.50;;;;;;;;;;4982803;28;20510;-71
2022/07/03 14:01:16;;;;;;;6.97;1.60;;;;;;;;;;4982059;28;20307;-72
2022/07/03 14:03:42;;;;;;;4.15;2.45;;;;;;;;;;4980979;28;20066;-74
2022/07/03 14:06:07;;;;;;;4.57;2.90;;;;;;;;;;4981976;28;20098;-72
2022/07/03 14:08:32;;;;;;;5.28;3.00;;;;;;;;;;4983427;28;20480;-72
2022/07/03 14:10:57;;;;;;;4.93;3.47;;;;;;;;;;4977833;28;20050;-71
2022/07/03 14:13:22;;;;;;;3.70;3.17;;;;;;;;;;4979973;28;20555;-72
2022/07/03 14:15:48;;;;;;;6.27;3.00;;;;;;;;;;4984183;28;20152;-71
2022/07/03 14:18:13;;;;;;;6.43;3.07;;;;;;;;;;4980707;28;20021;-72
2022/07/03 14:20:38;;;;;;;5.53;2.97;;;;;;;;;;4981094;28;20414;-70
2022/07/03 14:23:03;;;;;;;4.00;2.70;;;;;;;;;;4981923;28;20332;-73
2022/07/03 14:25:28;;;;;;;6.37;3.30;;;;;;;;;;4981325;28;20279;-69
2022/07/03 14:33:21;;;;;;;7.03;2.80;;;;;;;;;;4979585;28;20030;-68
2022/07/03 14:35:47;;;;;;;3.40;2.77;;;;;;;;;;4981059;28;20038;-71
2022/07/03 14:38:12;;;;;;;4.40;3.03;;;;;;;;;;4978324;28;20060;-70
2022/07/03 14:40:37;;;;;;;4.97;3.08;;;;;;;;;;4980456;28;20015;-73
2022/07/03 14:43:02;;;;;;;7.07;2.80;;;;;;;;;;4980940;28;20026;-72
2022/07/03 14:45:27;;;;;;;3.95;2.97;;;;;;;;;;4977510;28;20272;-74
2022/07/03 14:47:52;;;;;;;4.27;2.50;;;;;;;;;;4985353;28;20061;-70
2022/07/03 14:50:18;;;;;;;8.80;3.33;;;;;;;;;;4979980;28;20085;-69
2022/07/03 14:52:43;;;;;;;3.45;2.70;;;;;;;;;;4977060;28;20276;-71
2022/07/03 14:55:10;;;;;;;4.80;2.80;;;;;;;;;;4987390;28;20032;-73
2022/07/03 14:57:37;;;;;;;9.02;2.83;;;;;;;;;;4986582;28;20023;-71
2022/07/03 15:00:05;;;;;;;4.05;2.40;;;;;;;;;;4984113;28;20023;-72